createdAt,value
2022-12-03T00:00:46.869Z,20.97
2022-12-03T00:03:14.095Z,21.63
2022-12-03T00:05:48.363Z,20.13
2022-12-03T00:08:16.088Z,21.40
2022-12-03T00:10:43.246Z,16.57
2022-12-03T00:13:10.271Z,19.80
2022-12-03T00:15:37.333Z,15.63
2022-12-03T00:18:04.437Z,16.83
2022-12-03T00:20:31.488Z,17.73
2022-12-03T00:22:58.547Z,17.37
2022-12-03T00:25:25.841Z,17.13
2022-12-03T00:27:52.920Z,17.87
2022-12-03T00:30:20.000Z,18.67
2022-12-03T00:32:47.102Z,18.27
2022-12-03T00:35:14.131Z,22.37
2022-12-03T00:37:41.230Z,18.20
2022-12-03T00:40:08.595Z,20.63
2022-12-03T00:42:35.683Z,19.40
2022-12-03T00:45:02.824Z,16.93
2022-12-03T00:47:29.957Z,19.70
2022-12-03T00:49:59.386Z,22.10
2022-12-03T00:52:26.513Z,17.87
2022-12-03T00:54:53.917Z,15.60
2022-12-03T00:57:21.217Z,16.90
2022-12-03T00:59:48.404Z,17.37
2022-12-03T01:02:15.490Z,18.20
2022-12-03T01:04:42.781Z,19.93
2022-12-03T01:07:09.914Z,20.60
2022-12-03T01:09:37.047Z,19.93
2022-12-03T01:12:04.752Z,20.70
2022-12-03T01:14:31.815Z,24.07
2022-12-03T01:16:58.904Z,21.33
2022-12-03T01:19:25.950Z,18.00
2022-12-03T01:21:53.163Z,24.07
2022-12-03T01:24:20.502Z,21.53
2022-12-03T01:26:47.846Z,18.37
2022-12-03T01:29:15.020Z,21.03
2022-12-03T01:32:00.995Z,19.60
2022-12-03T01:34:28.190Z,16.50
2022-12-03T01:36:55.426Z,18.10
2022-12-03T01:39:22.570Z,18.40
2022-12-03T01:41:49.762Z,21.10
2022-12-03T01:44:33.141Z,18.83
2022-12-03T01:47:01.257Z,19.77
2022-12-03T01:49:34.446Z,22.30
2022-12-03T01:52:01.566Z,21.90
2022-12-03T01:54:30.197Z,24.53
2022-12-03T01:56:57.362Z,22.47
2022-12-03T01:59:26.433Z,21.57
2022-12-03T02:01:53.460Z,21.70
2022-12-03T02:04:20.706Z,19.87
2022-12-03T02:06:47.820Z,22.40
2022-12-03T02:09:15.053Z,24.90
2022-12-03T02:11:45.862Z,21.27
2022-12-03T02:14:13.706Z,22.83
2022-12-03T02:16:41.019Z,24.90
2022-12-03T02:19:10.937Z,22.47
2022-12-03T02:21:53.861Z,25.77
2022-12-03T02:24:33.755Z,24.40
2022-12-03T02:27:00.860Z,18.33
2022-12-03T02:29:27.900Z,21.23
2022-12-03T02:31:55.007Z,23.47
2022-12-03T02:34:38.790Z,22.60
2022-12-03T02:37:06.541Z,20.60
2022-12-03T02:39:34.054Z,21.23
2022-12-03T02:42:19.956Z,21.30
2022-12-03T02:44:46.993Z,26.00
2022-12-03T02:47:14.147Z,24.70
2022-12-03T02:49:41.178Z,24.33
2022-12-03T02:52:08.248Z,24.27
2022-12-03T02:54:35.275Z,23.83
2022-12-03T02:57:02.320Z,20.40
2022-12-03T02:59:29.459Z,23.70
2022-12-03T03:01:56.692Z,25.73
2022-12-03T03:04:24.877Z,23.80
2022-12-03T03:06:52.338Z,22.97
2022-12-03T03:09:20.121Z,24.80
2022-12-03T03:11:47.156Z,24.33
2022-12-03T03:14:14.241Z,22.60
2022-12-03T03:16:41.432Z,24.73
2022-12-03T03:19:08.663Z,24.50
2022-12-03T03:21:35.703Z,25.30
2022-12-03T03:24:02.867Z,23.43
2022-12-03T03:26:29.910Z,26.53
2022-12-03T03:28:59.953Z,21.20
2022-12-03T03:31:27.064Z,24.63
2022-12-03T03:33:54.206Z,28.17
2022-12-03T03:36:21.256Z,24.33
2022-12-03T03:38:48.371Z,18.43
2022-12-03T03:41:15.756Z,20.70
2022-12-03T03:43:43.044Z,22.57
2022-12-03T03:46:10.251Z,22.93
2022-12-03T03:48:37.426Z,22.30
2022-12-03T03:51:08.721Z,24.50
2022-12-03T03:53:36.946Z,24.27
2022-12-03T03:56:04.062Z,22.23
2022-12-03T04:02:00.277Z,23.03
2022-12-03T04:04:27.442Z,23.70
2022-12-03T04:06:54.523Z,20.07
2022-12-03T04:09:21.557Z,23.67
2022-12-03T04:12:07.309Z,22.57
2022-12-03T04:14:34.349Z,27.13
2022-12-03T04:17:01.457Z,25.10
2022-12-03T04:19:28.541Z,23.83
2022-12-03T04:22:14.537Z,28.43
2022-12-03T04:24:41.585Z,26.10
2022-12-03T04:27:27.653Z,24.60
2022-12-03T04:29:54.664Z,23.53
2022-12-03T04:32:40.649Z,28.47
2022-12-03T04:35:26.708Z,23.27
2022-12-03T04:37:53.789Z,30.00
2022-12-03T04:40:39.752Z,25.47
2022-12-03T04:43:06.779Z,26.20
2022-12-03T04:45:33.960Z,31.47
2022-12-03T04:48:01.015Z,30.80
2022-12-03T04:50:28.035Z,29.63
2022-12-03T04:52:55.081Z,30.80
2022-12-03T04:55:22.111Z,27.30
2022-12-03T04:57:49.141Z,33.27
2022-12-03T05:00:16.529Z,33.30
2022-12-03T05:02:43.703Z,27.87
2022-12-03T05:05:11.159Z,25.50
2022-12-03T05:07:38.472Z,25.40
2022-12-03T05:10:06.008Z,22.87
2022-12-03T05:12:33.040Z,22.47
2022-12-03T05:15:00.154Z,22.13
2022-12-03T05:17:27.228Z,28.60
2022-12-03T05:20:13.057Z,30.93
2022-12-03T05:22:40.088Z,26.13
2022-12-03T05:25:07.388Z,30.27
2022-12-03T05:27:34.724Z,23.73
2022-12-03T05:30:01.748Z,26.87
2022-12-03T05:32:28.816Z,26.60
2022-12-03T05:34:56.258Z,26.37
2022-12-03T05:37:23.525Z,27.73
2022-12-03T05:39:50.716Z,22.93
2022-12-03T05:42:36.257Z,33.77
2022-12-03T05:45:03.323Z,27.50
2022-12-03T05:47:30.411Z,28.27
2022-12-03T05:49:57.463Z,30.37
2022-12-03T05:52:24.495Z,29.50
2022-12-03T05:54:51.757Z,27.13
2022-12-03T05:57:19.001Z,27.77
2022-12-03T05:59:46.060Z,28.40
2022-12-03T06:02:13.311Z,20.33
2022-12-03T06:04:40.461Z,23.70
2022-12-03T06:07:11.066Z,22.20
2022-12-03T06:09:40.964Z,19.03
2022-12-03T06:12:10.861Z,18.27
2022-12-03T06:14:37.905Z,20.30
2022-12-03T06:17:05.237Z,19.50
2022-12-03T06:19:32.426Z,18.43
2022-12-03T06:21:59.449Z,21.20
2022-12-03T06:24:26.492Z,17.33
2022-12-03T06:26:53.510Z,23.17
2022-12-03T06:29:20.558Z,17.30
2022-12-03T06:31:47.608Z,18.30
2022-12-03T06:34:14.647Z,22.77
2022-12-03T06:36:41.693Z,22.20
2022-12-03T06:39:08.762Z,21.27
2022-12-03T06:41:35.778Z,17.33
2022-12-03T06:44:02.882Z,22.30
2022-12-03T06:46:30.313Z,19.43
2022-12-03T06:48:57.434Z,22.23
2022-12-03T06:51:24.473Z,23.00
2022-12-03T06:53:51.554Z,19.93
2022-12-03T06:56:22.129Z,29.67
2022-12-03T06:58:49.651Z,22.43
2022-12-03T07:01:16.720Z,22.30
2022-12-03T07:03:43.881Z,19.90
2022-12-03T07:06:10.964Z,21.90
2022-12-03T07:08:41.115Z,22.33
2022-12-03T07:11:28.144Z,13.13
2022-12-03T07:13:58.837Z,18.27
2022-12-03T07:16:28.961Z,20.50
2022-12-03T07:18:56.115Z,15.37
2022-12-03T07:21:23.237Z,17.60
2022-12-03T07:23:50.339Z,18.73
2022-12-03T07:26:17.394Z,18.37
2022-12-03T07:28:44.478Z,16.50
2022-12-03T07:31:11.649Z,17.40
2022-12-03T07:33:38.800Z,14.77
2022-12-03T07:36:06.016Z,20.27
2022-12-03T07:38:33.121Z,17.93
2022-12-03T07:41:00.156Z,17.57
2022-12-03T07:43:27.277Z,17.97
2022-12-03T07:45:54.363Z,18.33
2022-12-03T07:48:21.457Z,22.03
2022-12-03T07:50:48.586Z,15.97
2022-12-03T07:53:15.712Z,15.27
2022-12-03T07:55:42.795Z,17.10
2022-12-03T07:58:09.811Z,21.00
2022-12-03T08:00:36.992Z,17.50
2022-12-03T08:03:04.076Z,18.97
2022-12-03T08:05:31.185Z,17.17
2022-12-03T08:07:58.319Z,18.50
2022-12-03T08:10:26.587Z,15.50
2022-12-03T08:12:53.880Z,18.10
2022-12-03T08:15:24.005Z,24.17
2022-12-03T08:17:55.209Z,13.30
2022-12-03T08:20:23.369Z,21.00
2022-12-03T08:22:50.981Z,16.70
2022-12-03T08:25:20.693Z,17.17
2022-12-03T08:27:47.776Z,17.40
2022-12-03T08:30:15.523Z,15.47
2022-12-03T08:32:42.811Z,14.30
2022-12-03T08:35:13.820Z,20.03
2022-12-03T08:37:40.945Z,17.37
2022-12-03T08:40:21.381Z,16.17
2022-12-03T08:42:48.464Z,18.37
2022-12-03T08:45:21.725Z,18.97
2022-12-03T08:47:48.760Z,21.70
2022-12-03T08:50:27.495Z,22.30
2022-12-03T08:52:55.186Z,16.17
2022-12-03T08:55:35.282Z,19.67
2022-12-03T08:58:04.050Z,18.27
2022-12-03T09:00:31.067Z,21.43
2022-12-03T09:02:59.881Z,15.37
2022-12-03T09:05:28.109Z,20.47
2022-12-03T09:07:55.214Z,18.77
2022-12-03T09:10:22.359Z,14.73
2022-12-03T09:12:49.392Z,14.83
2022-12-03T09:15:16.470Z,20.50
2022-12-03T09:17:43.480Z,15.90
2022-12-03T09:20:10.744Z,16.30
2022-12-03T09:22:37.785Z,18.17
2022-12-03T09:25:04.980Z,17.00
2022-12-03T09:27:32.032Z,14.47
2022-12-03T09:29:59.223Z,14.53
2022-12-03T09:32:26.334Z,19.00
2022-12-03T09:34:54.423Z,26.23
2022-12-03T09:37:22.224Z,18.30
2022-12-03T09:39:49.308Z,14.57
2022-12-03T09:42:16.416Z,17.70
2022-12-03T09:44:43.504Z,17.70
2022-12-03T09:47:10.617Z,19.83
2022-12-03T09:49:38.220Z,18.77
2022-12-03T09:52:05.545Z,19.27
2022-12-03T09:54:32.699Z,20.00
2022-12-03T09:57:00.470Z,18.30
2022-12-03T09:59:28.257Z,16.80
2022-12-03T10:01:55.401Z,22.10
2022-12-03T10:04:22.620Z,18.00
2022-12-03T10:06:49.715Z,23.33
2022-12-03T10:09:20.931Z,17.47
2022-12-03T10:11:48.017Z,16.87
2022-12-03T10:14:15.173Z,15.97
2022-12-03T10:16:42.339Z,20.07
2022-12-03T10:19:10.283Z,17.83
2022-12-03T10:21:37.541Z,21.73
2022-12-03T10:24:23.350Z,21.03
2022-12-03T10:26:51.068Z,20.50
2022-12-03T10:29:21.920Z,23.73
2022-12-03T10:31:55.799Z,23.97
2022-12-03T10:34:32.940Z,20.87
2022-12-03T10:37:09.034Z,16.87
2022-12-03T10:39:55.729Z,21.03
2022-12-03T10:42:23.592Z,21.10
2022-12-03T10:44:53.741Z,21.70
2022-12-03T10:47:22.476Z,19.20
2022-12-03T10:49:50.028Z,15.27
2022-12-03T10:52:25.626Z,19.63
2022-12-03T10:54:53.470Z,22.80
2022-12-03T10:57:20.765Z,26.93
2022-12-03T10:59:47.814Z,25.77
2022-12-03T11:02:19.122Z,23.83
2022-12-03T11:04:46.161Z,25.00
2022-12-03T11:07:15.543Z,23.70
2022-12-03T11:09:46.317Z,27.00
2022-12-03T11:12:19.434Z,26.67
2022-12-03T11:14:56.493Z,28.70
2022-12-03T11:17:42.805Z,21.73
2022-12-03T11:20:10.996Z,26.80
2022-12-03T11:22:41.101Z,21.57
2022-12-03T11:25:26.795Z,25.30
2022-12-03T11:28:12.799Z,24.80
2022-12-03T11:31:01.210Z,18.03
2022-12-03T11:33:32.133Z,20.67
2022-12-03T11:36:02.173Z,24.50
2022-12-03T11:38:38.224Z,22.10
2022-12-03T11:41:21.890Z,19.87
2022-12-03T11:43:56.160Z,19.73
2022-12-03T11:46:24.137Z,18.93
2022-12-03T11:48:52.118Z,22.30
2022-12-03T11:51:20.247Z,19.93
2022-12-03T11:53:47.371Z,23.13
2022-12-03T11:56:18.334Z,24.53
2022-12-03T11:58:45.706Z,25.60
2022-12-03T12:01:12.838Z,23.83
2022-12-03T12:03:44.190Z,21.03
2022-12-03T12:06:12.206Z,27.47
2022-12-03T12:08:43.890Z,22.27
2022-12-03T12:11:21.017Z,24.23
2022-12-03T12:13:52.194Z,22.37
2022-12-03T12:16:38.160Z,21.40
2022-12-03T12:19:23.914Z,22.07
2022-12-03T12:21:51.062Z,24.57
2022-12-03T12:24:38.174Z,23.17
2022-12-03T12:27:07.050Z,25.60
2022-12-03T12:29:34.485Z,26.70
2022-12-03T12:32:07.962Z,20.37
2022-12-03T12:34:35.889Z,25.10
2022-12-03T12:37:03.062Z,27.07
2022-12-03T12:39:31.366Z,22.23
2022-12-03T12:41:58.528Z,22.33
2022-12-03T12:44:26.548Z,20.17
2022-12-03T12:46:54.735Z,19.57
2022-12-03T12:49:26.774Z,18.57
2022-12-03T12:51:53.979Z,22.50
2022-12-03T12:54:21.129Z,18.50
2022-12-03T12:56:49.891Z,19.73
2022-12-03T12:59:20.649Z,20.80
2022-12-03T13:01:48.671Z,18.27
2022-12-03T13:04:16.966Z,19.33
2022-12-03T13:06:44.078Z,21.97
2022-12-03T13:09:26.554Z,18.07
2022-12-03T13:11:57.874Z,19.60
2022-12-03T13:14:25.449Z,21.10
2022-12-03T13:16:53.011Z,19.50
2022-12-03T13:19:22.266Z,20.80
2022-12-03T13:21:50.091Z,20.83
2022-12-03T13:24:35.717Z,21.03
2022-12-03T13:27:03.892Z,19.00
2022-12-03T13:29:30.969Z,15.83
2022-12-03T13:32:02.587Z,19.73
2022-12-03T13:34:33.356Z,18.37
2022-12-03T13:37:00.785Z,22.07
2022-12-03T13:39:29.161Z,17.77
2022-12-03T13:42:14.822Z,21.83
2022-12-03T13:44:46.415Z,25.90
2022-12-03T13:47:15.007Z,19.63
2022-12-03T13:49:42.420Z,20.27
2022-12-03T13:52:13.575Z,21.03
2022-12-03T13:54:40.710Z,27.73
2022-12-03T13:57:07.818Z,25.07
2022-12-03T13:59:35.001Z,22.63
2022-12-03T14:02:02.117Z,21.40
2022-12-03T14:04:29.244Z,23.77
2022-12-03T14:06:56.431Z,24.23
2022-12-03T14:09:23.523Z,22.73
2022-12-03T14:12:09.186Z,29.50
2022-12-03T14:14:36.287Z,22.63
2022-12-03T14:17:04.492Z,25.47
2022-12-03T14:19:31.806Z,25.63
2022-12-03T14:22:00.133Z,21.17
2022-12-03T14:24:27.226Z,27.17
2022-12-03T14:26:54.306Z,20.60
2022-12-03T14:29:21.466Z,24.53
2022-12-03T14:31:48.639Z,24.83
2022-12-03T14:34:15.759Z,22.67
2022-12-03T14:36:42.957Z,22.93
2022-12-03T14:39:10.132Z,24.17
2022-12-03T14:41:55.860Z,25.57
2022-12-03T14:44:23.597Z,23.33
2022-12-03T14:46:55.475Z,20.10
2022-12-03T14:49:24.056Z,24.37
2022-12-03T14:51:51.219Z,23.30
2022-12-03T14:54:18.301Z,24.23
2022-12-03T14:56:45.422Z,28.80
2022-12-03T14:59:12.531Z,31.00
2022-12-03T15:01:39.778Z,24.20
2022-12-03T15:04:06.971Z,27.10
2022-12-03T15:06:34.066Z,26.50
2022-12-03T15:09:01.188Z,29.23
2022-12-03T15:11:28.601Z,28.70
2022-12-03T15:13:55.781Z,27.27
2022-12-03T15:16:23.670Z,28.87
2022-12-03T15:18:50.933Z,27.93
2022-12-03T15:21:18.058Z,30.30
2022-12-03T15:23:45.149Z,26.97
2022-12-03T15:26:12.216Z,34.17
2022-12-03T15:28:40.572Z,30.37
2022-12-03T15:31:09.251Z,28.73
2022-12-03T15:33:36.366Z,24.27
2022-12-03T15:36:03.489Z,24.07
2022-12-03T15:38:30.580Z,28.83
2022-12-03T15:40:58.084Z,29.77
2022-12-03T15:43:25.253Z,26.27
2022-12-03T15:45:52.534Z,28.50
2022-12-03T15:48:19.666Z,32.13
2022-12-03T15:50:46.787Z,29.67
2022-12-03T15:53:13.872Z,37.27
2022-12-03T15:55:41.096Z,28.80
2022-12-03T15:58:08.182Z,30.57
2022-12-03T16:00:35.269Z,25.77
2022-12-03T16:03:02.435Z,27.03
2022-12-03T16:05:29.593Z,28.03
2022-12-03T16:07:56.712Z,25.77
2022-12-03T16:10:23.919Z,27.17
2022-12-03T16:12:51.050Z,27.60
2022-12-03T16:15:21.007Z,27.27
2022-12-03T16:17:52.322Z,30.33
2022-12-03T16:20:19.422Z,30.63
2022-12-03T16:22:46.499Z,30.37
2022-12-03T16:25:13.598Z,33.27
2022-12-03T16:27:40.773Z,32.20
2022-12-03T16:30:08.204Z,25.10
2022-12-03T16:32:35.290Z,28.07
2022-12-03T16:35:02.445Z,28.83
2022-12-03T16:37:29.513Z,26.20
2022-12-03T16:39:57.011Z,25.13
2022-12-03T16:42:24.385Z,30.90
2022-12-03T16:45:12.192Z,29.50
2022-12-03T16:47:39.270Z,26.87
2022-12-03T16:50:07.702Z,26.30
2022-12-03T16:52:35.106Z,24.07
2022-12-03T16:55:02.430Z,26.47
2022-12-03T16:57:33.682Z,27.37
2022-12-03T17:00:01.181Z,28.07
2022-12-03T17:02:28.410Z,28.00
2022-12-03T17:04:55.558Z,26.60
2022-12-03T17:07:22.724Z,30.90
2022-12-03T17:09:49.924Z,27.70
2022-12-03T17:12:17.033Z,31.00
2022-12-03T17:14:44.132Z,28.63
2022-12-03T17:17:11.203Z,24.00
2022-12-03T17:19:38.354Z,29.70
2022-12-03T17:22:05.462Z,22.17
2022-12-03T17:24:32.555Z,27.60
2022-12-03T17:26:59.697Z,31.00
2022-12-03T17:29:42.250Z,33.07
2022-12-03T17:32:09.383Z,31.83
2022-12-03T17:34:36.501Z,27.70
2022-12-03T17:37:03.656Z,32.57
2022-12-03T17:39:30.745Z,22.90
2022-12-03T17:41:57.922Z,24.13
2022-12-03T17:44:25.001Z,25.77
2022-12-03T17:46:52.135Z,27.87
2022-12-03T17:49:19.284Z,26.17
2022-12-03T17:51:46.423Z,22.10
2022-12-03T17:54:13.937Z,27.27
2022-12-03T17:56:43.517Z,25.60
2022-12-03T17:59:13.847Z,25.40
2022-12-03T18:01:41.602Z,24.53
2022-12-03T18:04:10.288Z,26.57
2022-12-03T18:06:37.528Z,27.80
2022-12-03T18:09:05.087Z,29.37
2022-12-03T18:11:32.228Z,28.00
2022-12-03T18:14:01.257Z,25.60
2022-12-03T18:16:28.940Z,21.43
2022-12-03T18:18:57.633Z,31.03
2022-12-03T18:21:28.308Z,26.83
2022-12-03T18:23:55.924Z,19.80
2022-12-03T18:26:23.330Z,23.63
2022-12-03T18:28:50.417Z,25.57
2022-12-03T18:31:18.402Z,26.00
2022-12-03T18:33:45.615Z,29.00
2022-12-03T18:36:19.738Z,24.70
2022-12-03T18:38:50.416Z,26.10
2022-12-03T18:41:18.325Z,22.67
2022-12-03T18:43:45.636Z,24.80
2022-12-03T18:46:31.325Z,22.23
2022-12-03T18:49:01.713Z,23.63
2022-12-03T18:51:29.178Z,24.23
2022-12-03T18:53:56.319Z,18.50
2022-12-03T18:56:23.394Z,22.67
2022-12-03T18:58:50.506Z,26.50
2022-12-03T19:01:18.489Z,23.97
2022-12-03T19:03:45.604Z,26.70
2022-12-03T19:06:17.201Z,24.33
2022-12-03T19:08:46.149Z,31.47
2022-12-03T19:11:13.381Z,24.70
2022-12-03T19:13:40.625Z,24.90
2022-12-03T19:16:08.633Z,24.77
2022-12-03T19:18:35.762Z,21.57
2022-12-03T19:21:12.942Z,23.17
2022-12-03T19:23:40.100Z,24.03
2022-12-03T19:26:07.809Z,16.77
2022-12-03T19:28:34.982Z,22.30
2022-12-03T19:31:02.954Z,20.60
2022-12-03T19:33:30.079Z,23.00
2022-12-03T19:35:57.417Z,23.00
2022-12-03T19:38:24.715Z,25.37
2022-12-03T19:41:01.730Z,26.87
2022-12-03T19:43:28.950Z,24.33
2022-12-03T19:45:56.139Z,29.83
2022-12-03T19:48:23.273Z,24.03
2022-12-03T19:51:02.910Z,26.23
2022-12-03T19:53:38.479Z,21.33
2022-12-03T19:56:06.428Z,24.63
2022-12-03T19:58:33.746Z,23.20
2022-12-03T20:01:10.585Z,23.17
2022-12-03T20:03:41.132Z,20.97
2022-12-03T20:06:08.387Z,23.47
2022-12-03T20:08:38.535Z,23.30
2022-12-03T20:11:15.921Z,24.00
2022-12-03T20:13:43.218Z,23.57
2022-12-03T20:16:12.554Z,20.47
2022-12-03T20:18:40.413Z,23.63
2022-12-03T20:21:07.647Z,21.10
2022-12-03T20:23:34.731Z,27.10
2022-12-03T20:26:02.010Z,21.17
2022-12-03T20:28:29.328Z,24.37
2022-12-03T20:31:00.058Z,27.93
2022-12-03T20:33:27.151Z,23.70
2022-12-03T20:35:54.569Z,27.40
2022-12-03T20:38:24.828Z,24.83
2022-12-03T20:40:51.933Z,26.63
2022-12-03T20:43:18.998Z,26.63
2022-12-03T20:45:47.036Z,26.70
2022-12-03T20:48:14.200Z,26.87
2022-12-03T20:50:41.539Z,22.00
2022-12-03T20:53:24.363Z,26.67
2022-12-03T20:55:58.509Z,23.30
2022-12-03T20:58:25.624Z,27.50
2022-12-03T21:00:52.819Z,26.13
2022-12-03T21:03:19.966Z,27.43
2022-12-03T21:05:47.685Z,26.53
2022-12-03T21:08:14.886Z,30.17
2022-12-03T21:10:45.331Z,27.70
2022-12-03T21:13:15.830Z,25.20
2022-12-03T21:15:43.138Z,28.60
2022-12-03T21:18:11.403Z,21.87
2022-12-03T21:20:42.144Z,27.40
2022-12-03T21:23:09.304Z,24.17
2022-12-03T21:25:36.930Z,24.03
2022-12-03T21:28:04.528Z,23.50
2022-12-03T21:30:31.714Z,23.93
2022-12-03T21:32:58.837Z,28.60
2022-12-03T21:35:25.935Z,19.93
2022-12-03T21:37:53.145Z,23.67
2022-12-03T21:40:20.255Z,26.07
2022-12-03T21:42:47.439Z,23.30
2022-12-03T21:45:14.694Z,22.30
2022-12-03T21:47:41.808Z,24.87
2022-12-03T21:50:11.147Z,22.40
2022-12-03T21:52:38.221Z,27.13
2022-12-03T21:55:06.316Z,28.63
2022-12-03T21:57:35.453Z,23.43
2022-12-03T22:00:03.428Z,27.77
2022-12-03T22:02:30.537Z,24.40
2022-12-03T22:04:57.702Z,21.87
2022-12-03T22:07:24.822Z,25.57
2022-12-03T22:09:52.137Z,23.53
2022-12-03T22:12:19.432Z,22.73
2022-12-03T22:14:46.585Z,27.97
2022-12-03T22:17:13.662Z,21.63
2022-12-03T22:19:40.812Z,23.27
2022-12-03T22:22:07.934Z,22.27
2022-12-03T22:24:35.046Z,25.10
2022-12-03T22:27:03.914Z,24.07
2022-12-03T22:29:31.286Z,23.37
2022-12-03T22:31:58.428Z,25.17
2022-12-03T22:34:25.527Z,21.77
2022-12-03T22:36:52.628Z,22.60
2022-12-03T22:39:19.780Z,24.60
2022-12-03T22:41:46.855Z,25.63
2022-12-03T22:44:13.946Z,28.87
2022-12-03T22:46:41.146Z,30.53
2022-12-03T22:49:08.333Z,28.27
2022-12-03T22:51:35.691Z,22.97
2022-12-03T22:54:02.835Z,31.47
2022-12-03T22:56:30.348Z,27.93
2022-12-03T22:58:57.455Z,56.97
2022-12-03T23:01:44.788Z,23.37
2022-12-03T23:04:12.001Z,23.00
2022-12-03T23:06:39.212Z,28.10
2022-12-03T23:09:06.678Z,22.73
2022-12-03T23:11:33.897Z,20.60
2022-12-03T23:14:01.062Z,28.30
2022-12-03T23:16:29.493Z,26.50
2022-12-03T23:18:58.126Z,22.40
2022-12-03T23:21:29.977Z,25.80
2022-12-03T23:23:58.328Z,24.13
2022-12-03T23:26:25.462Z,23.60
2022-12-03T23:28:52.627Z,24.97
2022-12-03T23:31:20.908Z,27.57
2022-12-03T23:33:48.322Z,23.20
2022-12-03T23:36:15.525Z,23.00
2022-12-03T23:38:42.642Z,23.40
2022-12-03T23:41:13.912Z,27.30
2022-12-03T23:43:41.048Z,24.80
2022-12-03T23:46:15.441Z,31.10
2022-12-03T23:48:42.716Z,25.33
2022-12-03T23:51:10.971Z,25.43
2022-12-03T23:53:38.193Z,24.83
2022-12-03T23:56:06.342Z,23.00
2022-12-03T23:58:34.000Z,21.57
